Hovedside
METAR-TAF:

METAR-TAF

Lufthavner :

Bloemfontein lufthavn

Bloemfontein, Sør-Afrika

breddegrad: 29-06S, lengdegrad: 026-18E, høyde over havet: 1354 m

Gjeldene værobservasjon

Denne rapporten ble laget for 22 minutter siden, klokken 02:00 UTC
Vind 3 kt fra Vest
Temperatur 0°C
Luftfuktighet 93%
Trykk 1029 hPa

METAR: FABL 140200Z AUTO 26003KT //// R02///// // ///////// M00/M01 Q1029

Tid: 04:22 (02:22 UTC)

Varsel

Denne rapporten ble laget for 4 timer og 22 minutter siden, klokken 22:00 UTC
Varsel gyldig fra 14. klokken 00 UTC til 14. klokken 24 UTC
Vind 3 kt fra skiftende retning
Sikt 10 km eller mer
ingen skyer under 1500 m og ingen bygeskyer

TAF: FABL 132200Z 1400/1424 VRB03KT CAVOK TX19/1412Z TNM01/1404Z

Værobservasjoner og værvarsel for over 4000 flyplasser (METAR- og TAF-rapporter).

Tilgjengelige stasjoner er representert av de røde og gule prikkene på kartet.

Hold musepekeren over prikken for å se navnet på stasjonen.

Klikk så for å se værobservasjoner og -varsler.

For å forandre kartet kan du klikke på den grønne knappen med svart kryss for å zoome inn, på den grønne knappen med strek for å zoome ut, eller på de grønne pilene for å se tilstøtende kart.


METAR-TAF: